createdAt,value
2023-02-13T00:00:39.961Z,4.75
2023-02-13T00:03:07.353Z,4.38
2023-02-13T00:05:36.053Z,4.65
2023-02-13T00:08:03.434Z,4.22
2023-02-13T00:10:30.819Z,4.18
2023-02-13T00:12:58.216Z,5.10
2023-02-13T00:15:25.663Z,4.57
2023-02-13T00:17:53.071Z,5.80
2023-02-13T00:20:20.676Z,4.88
2023-02-13T00:22:49.358Z,4.78
2023-02-13T00:25:16.754Z,3.97
2023-02-13T00:27:44.391Z,5.00
2023-02-13T00:30:12.692Z,4.50
2023-02-13T00:32:40.083Z,5.22
2023-02-13T00:35:07.783Z,4.57
2023-02-13T00:37:35.176Z,4.45
2023-02-13T00:40:03.892Z,5.07
2023-02-13T00:42:31.264Z,4.75
2023-02-13T00:44:58.674Z,4.07
2023-02-13T00:47:26.058Z,5.07
2023-02-13T00:49:53.442Z,4.70
2023-02-13T00:52:20.795Z,4.40
2023-02-13T00:54:48.245Z,4.82
2023-02-13T00:57:16.924Z,5.18
2023-02-13T00:59:44.300Z,4.03
2023-02-13T01:02:11.737Z,4.25
2023-02-13T01:04:39.250Z,4.93
2023-02-13T01:07:06.653Z,3.67
2023-02-13T01:09:34.165Z,5.25
2023-02-13T01:12:01.548Z,5.47
2023-02-13T01:14:30.231Z,4.40
2023-02-13T01:16:57.607Z,5.10
2023-02-13T01:19:25.018Z,4.45
2023-02-13T01:21:52.421Z,4.15
2023-02-13T01:24:19.811Z,4.60
2023-02-13T01:26:47.192Z,4.50
2023-02-13T01:29:14.663Z,4.47
2023-02-13T01:31:43.493Z,4.47
2023-02-13T01:34:10.982Z,4.80
2023-02-13T01:36:38.405Z,4.45
2023-02-13T01:39:05.915Z,4.60
2023-02-13T01:41:33.363Z,4.22
2023-02-13T01:44:01.397Z,4.03
2023-02-13T01:46:30.058Z,4.43
2023-02-13T01:49:00.394Z,4.05
2023-02-13T01:51:29.471Z,4.65
2023-02-13T01:53:59.372Z,3.97
2023-02-13T01:56:28.138Z,4.05
2023-02-13T01:58:57.032Z,3.90
2023-02-13T02:01:24.505Z,4.20
2023-02-13T02:03:53.857Z,3.70
2023-02-13T02:06:24.936Z,4.43
2023-02-13T02:08:52.314Z,3.90
2023-02-13T02:11:23.750Z,3.90
2023-02-13T02:13:51.281Z,4.30
2023-02-13T02:16:18.767Z,4.80
2023-02-13T02:18:46.975Z,4.22
2023-02-13T02:21:44.781Z,4.32
2023-02-13T02:24:25.513Z,3.75
2023-02-13T02:27:10.644Z,4.00
2023-02-13T02:30:02.409Z,4.07
2023-02-13T02:32:50.864Z,3.50
2023-02-13T02:35:24.674Z,3.85
2023-02-13T02:38:02.160Z,3.58
2023-02-13T02:40:33.705Z,3.58
2023-02-13T02:43:09.730Z,3.50
2023-02-13T02:45:39.622Z,3.60
2023-02-13T02:48:28.915Z,3.70
2023-02-13T02:50:58.973Z,3.47
2023-02-13T02:56:01.517Z,3.53
2023-02-13T02:58:57.808Z,3.15
2023-02-13T03:01:43.574Z,3.20
2023-02-13T03:04:33.288Z,3.50
2023-02-13T03:07:01.383Z,3.70
2023-02-13T03:09:48.621Z,3.53
2023-02-13T03:12:35.900Z,3.50
2023-02-13T03:15:03.327Z,3.70
2023-02-13T03:17:48.510Z,3.78
2023-02-13T03:20:52.406Z,3.70
2023-02-13T03:23:24.068Z,4.25
2023-02-13T03:26:03.695Z,4.03
2023-02-13T03:28:52.270Z,4.25
2023-02-13T03:31:22.501Z,4.30
2023-02-13T03:33:56.921Z,3.42
2023-02-13T03:36:48.867Z,3.40
2023-02-13T03:39:19.632Z,3.47
2023-02-13T03:41:49.676Z,3.50
2023-02-13T03:44:18.934Z,4.53
2023-02-13T03:46:47.496Z,4.33
2023-02-13T03:49:36.440Z,3.60
2023-02-13T03:52:06.775Z,3.70
2023-02-13T03:54:53.289Z,3.50
2023-02-13T03:57:39.104Z,5.13
2023-02-13T04:00:09.902Z,3.08
2023-02-13T04:02:39.797Z,3.67
2023-02-13T04:05:09.235Z,4.55
2023-02-13T04:07:37.979Z,3.53
2023-02-13T04:10:06.937Z,3.67
2023-02-13T04:12:38.662Z,3.42
2023-02-13T04:15:09.558Z,4.53
2023-02-13T04:17:38.110Z,4.07
2023-02-13T04:20:06.889Z,4.00
2023-02-13T04:22:34.316Z,3.55
2023-02-13T04:25:03.008Z,4.88
2023-02-13T04:27:30.461Z,4.40
2023-02-13T04:29:57.866Z,4.10
2023-02-13T04:32:25.246Z,4.68
2023-02-13T04:34:52.628Z,3.58
2023-02-13T04:37:20.018Z,4.35
2023-02-13T04:39:47.413Z,3.47
2023-02-13T04:42:16.111Z,4.28
2023-02-13T04:44:43.491Z,4.40
2023-02-13T04:47:10.933Z,3.90
2023-02-13T04:49:38.336Z,3.17
2023-02-13T04:52:06.159Z,3.50
2023-02-13T04:54:33.564Z,4.15
2023-02-13T04:57:00.957Z,4.28
2023-02-13T04:59:29.680Z,4.82
2023-02-13T05:01:59.084Z,3.17
2023-02-13T05:04:26.835Z,2.72
2023-02-13T05:06:54.235Z,3.55
2023-02-13T05:09:21.727Z,4.32
2023-02-13T05:11:51.626Z,3.55
2023-02-13T05:14:19.034Z,3.90
2023-02-13T05:16:47.741Z,4.32
2023-02-13T05:19:15.121Z,3.67
2023-02-13T05:21:59.849Z,4.13
2023-02-13T05:24:27.259Z,3.83
2023-02-13T05:26:54.681Z,3.42
2023-02-13T05:29:22.718Z,3.38
2023-02-13T05:31:52.693Z,3.05
2023-02-13T05:34:20.208Z,3.75
2023-02-13T05:36:47.629Z,3.63
2023-02-13T05:39:15.325Z,3.58
2023-02-13T05:41:42.812Z,3.80
2023-02-13T05:44:10.216Z,4.07
2023-02-13T05:46:39.221Z,3.78
2023-02-13T05:49:08.324Z,6.07
2023-02-13T05:51:35.795Z,4.05
2023-02-13T05:54:03.190Z,3.85
2023-02-13T05:56:30.613Z,3.88
2023-02-13T05:58:58.051Z,3.53
2023-02-13T06:01:25.484Z,3.63
2023-02-13T06:03:52.948Z,3.38
2023-02-13T06:06:22.669Z,3.20
2023-02-13T06:08:50.067Z,3.58
2023-02-13T06:11:17.486Z,3.40
2023-02-13T06:13:44.876Z,2.97
2023-02-13T06:16:12.423Z,2.70
2023-02-13T06:18:40.173Z,3.00
2023-02-13T06:21:07.850Z,3.03
2023-02-13T06:23:36.807Z,2.70
2023-02-13T06:26:04.841Z,3.28
2023-02-13T06:28:32.355Z,2.78
2023-02-13T06:31:00.339Z,2.72
2023-02-13T06:33:27.985Z,2.60
2023-02-13T06:35:55.377Z,2.72
2023-02-13T06:38:22.826Z,2.63
2023-02-13T06:40:52.052Z,2.53
2023-02-13T06:43:19.470Z,3.77
2023-02-13T06:45:47.710Z,2.90
2023-02-13T06:48:15.371Z,3.03
2023-02-13T06:50:42.765Z,3.03
2023-02-13T06:53:10.154Z,3.10
2023-02-13T06:55:39.204Z,3.13
2023-02-13T06:58:07.913Z,2.75
2023-02-13T07:00:35.331Z,2.92
2023-02-13T07:03:03.036Z,2.75
2023-02-13T07:05:30.503Z,2.85
2023-02-13T07:07:57.993Z,2.70
2023-02-13T07:10:25.404Z,2.70
2023-02-13T07:13:04.975Z,2.55
2023-02-13T07:15:34.709Z,2.78
2023-02-13T07:18:02.136Z,2.50
2023-02-13T07:20:29.618Z,2.47
2023-02-13T07:22:58.841Z,2.55
2023-02-13T07:25:26.216Z,2.30
2023-02-13T07:31:40.929Z,2.15
2023-02-13T07:34:08.374Z,2.08
2023-02-13T07:36:35.746Z,2.30
2023-02-13T07:39:03.193Z,2.00
2023-02-13T07:41:30.587Z,2.20
2023-02-13T07:43:57.983Z,2.03
2023-02-13T07:46:25.447Z,1.90
2023-02-13T07:48:54.428Z,2.00
2023-02-13T07:51:25.101Z,2.08
2023-02-13T07:53:52.832Z,1.92
2023-02-13T07:56:20.228Z,2.20
2023-02-13T07:58:47.603Z,2.15
2023-02-13T08:01:16.114Z,1.77
2023-02-13T08:03:43.682Z,2.05
2023-02-13T08:06:12.461Z,1.95
2023-02-13T08:08:39.895Z,2.08
2023-02-13T08:11:34.206Z,2.03
2023-02-13T08:14:01.672Z,2.30
2023-02-13T08:16:29.063Z,2.25
2023-02-13T08:18:56.468Z,1.95
2023-02-13T08:21:25.239Z,2.25
2023-02-13T08:23:52.747Z,2.05
2023-02-13T08:26:20.165Z,2.20
2023-02-13T08:28:47.543Z,1.90
2023-02-13T08:31:15.045Z,1.80
2023-02-13T08:33:42.461Z,1.90
2023-02-13T08:36:10.298Z,2.00
2023-02-13T08:41:11.333Z,1.77
2023-02-13T08:43:38.710Z,1.80
2023-02-13T08:46:06.294Z,2.10
2023-02-13T08:48:33.850Z,1.85
2023-02-13T08:51:01.484Z,1.90
2023-02-13T08:53:28.864Z,2.10
2023-02-13T08:55:58.503Z,2.10
2023-02-13T08:58:26.238Z,1.70
2023-02-13T09:00:53.676Z,1.70
2023-02-13T09:03:21.144Z,1.90
2023-02-13T09:05:48.588Z,2.40
2023-02-13T09:08:17.869Z,2.20
2023-02-13T09:10:46.062Z,2.13
2023-02-13T09:13:14.797Z,2.70
2023-02-13T09:15:42.196Z,2.53
2023-02-13T09:18:09.628Z,3.47
2023-02-13T09:20:37.051Z,3.28
2023-02-13T09:23:04.447Z,2.85
2023-02-13T09:25:31.967Z,2.88
2023-02-13T09:28:00.323Z,2.78
2023-02-13T09:30:29.049Z,2.75
2023-02-13T09:32:56.549Z,3.53
2023-02-13T09:35:24.023Z,3.45
2023-02-13T09:37:51.419Z,3.10
2023-02-13T09:40:21.309Z,3.00
2023-02-13T09:42:48.687Z,3.20
2023-02-13T09:45:16.077Z,3.13
2023-02-13T09:47:44.833Z,3.22
2023-02-13T09:50:13.667Z,3.15
2023-02-13T09:52:41.221Z,3.30
2023-02-13T09:55:15.574Z,3.40
2023-02-13T09:57:44.206Z,3.70
2023-02-13T10:00:14.578Z,3.35
2023-02-13T10:02:55.340Z,3.40
2023-02-13T10:05:37.860Z,3.60
2023-02-13T10:08:07.203Z,3.17
2023-02-13T10:10:37.507Z,3.50
2023-02-13T10:13:17.092Z,3.30
2023-02-13T10:15:47.299Z,3.08
2023-02-13T10:18:17.139Z,3.13
2023-02-13T10:20:46.059Z,3.28
2023-02-13T10:23:18.570Z,3.42
2023-02-13T10:25:49.873Z,3.20
2023-02-13T10:28:28.887Z,2.97
2023-02-13T10:30:57.676Z,3.00
2023-02-13T10:33:28.688Z,3.10
2023-02-13T10:36:00.419Z,3.05
2023-02-13T10:38:29.029Z,2.97
2023-02-13T10:41:06.928Z,3.50
2023-02-13T10:43:39.539Z,3.40
2023-02-13T10:46:14.717Z,3.40
2023-02-13T10:49:01.970Z,3.00
2023-02-13T10:51:33.458Z,3.10
2023-02-13T10:54:14.248Z,3.15
2023-02-13T10:56:42.150Z,3.08
2023-02-13T10:59:24.500Z,3.60
2023-02-13T11:01:54.602Z,2.90
2023-02-13T11:06:53.742Z,3.03
2023-02-13T11:09:21.128Z,2.70
2023-02-13T11:11:48.650Z,2.92
2023-02-13T11:14:17.255Z,3.03
2023-02-13T11:16:49.287Z,2.90
2023-02-13T11:19:21.097Z,2.72
2023-02-13T11:21:50.841Z,2.95
2023-02-13T11:24:19.746Z,2.80
2023-02-13T11:26:50.695Z,2.80
2023-02-13T11:29:19.217Z,2.90
2023-02-13T11:31:46.705Z,2.65
2023-02-13T11:34:25.659Z,2.85
2023-02-13T11:36:55.072Z,2.40
2023-02-13T11:39:23.205Z,2.63
2023-02-13T11:41:51.535Z,1.90
2023-02-13T11:44:23.723Z,2.50
2023-02-13T11:46:52.083Z,2.10
2023-02-13T11:49:20.796Z,2.50
2023-02-13T11:51:49.724Z,2.42
2023-02-13T11:54:26.642Z,2.50
2023-02-13T11:57:04.900Z,2.13
2023-02-13T11:59:34.105Z,2.40
2023-02-13T12:02:12.745Z,2.08
2023-02-13T12:04:40.143Z,2.35
2023-02-13T12:07:14.158Z,2.22
2023-02-13T12:09:42.865Z,2.03
2023-02-13T12:12:11.773Z,2.17
2023-02-13T12:14:40.659Z,2.13
2023-02-13T12:17:12.363Z,2.15
2023-02-13T12:19:42.920Z,2.30
2023-02-13T12:22:19.726Z,2.03
2023-02-13T12:24:58.422Z,2.05
2023-02-13T12:27:29.023Z,2.00
2023-02-13T12:30:20.329Z,1.88
2023-02-13T12:32:50.927Z,2.00
2023-02-13T12:35:40.988Z,2.30
2023-02-13T12:38:12.669Z,1.77
2023-02-13T12:40:47.569Z,1.90
2023-02-13T12:43:37.473Z,2.10
2023-02-13T12:46:06.514Z,1.80
2023-02-13T12:48:38.998Z,1.70
2023-02-13T12:51:13.847Z,1.95
2023-02-13T12:53:54.985Z,1.98
2023-02-13T12:56:46.573Z,1.80
2023-02-13T12:59:17.724Z,1.90
2023-02-13T13:02:00.695Z,1.88
2023-02-13T13:04:32.927Z,1.65
2023-02-13T13:07:10.291Z,1.60
2023-02-13T13:09:47.047Z,2.08
2023-02-13T13:12:36.008Z,1.80
2023-02-13T13:15:06.621Z,1.80
2023-02-13T13:17:41.469Z,1.80
2023-02-13T13:20:34.204Z,1.90
2023-02-13T13:23:04.776Z,1.67
2023-02-13T13:25:33.837Z,1.88
2023-02-13T13:28:04.595Z,1.80
2023-02-13T13:30:35.345Z,1.65
2023-02-13T13:33:04.392Z,1.90
2023-02-13T13:35:31.815Z,1.83
2023-02-13T13:38:03.159Z,1.50
2023-02-13T13:40:40.169Z,1.40
2023-02-13T13:43:16.179Z,1.85
2023-02-13T13:45:44.790Z,1.73
2023-02-13T13:48:37.710Z,1.70
2023-02-13T13:51:06.152Z,1.75
2023-02-13T13:53:33.526Z,1.90
2023-02-13T13:56:09.120Z,1.80
2023-02-13T13:58:40.131Z,1.90
2023-02-13T14:01:20.944Z,1.92
2023-02-13T14:03:48.765Z,1.70
2023-02-13T14:06:17.125Z,1.83
2023-02-13T14:08:58.170Z,1.80
2023-02-13T14:11:31.227Z,1.70
2023-02-13T14:13:59.942Z,1.83
2023-02-13T14:16:41.575Z,1.98
2023-02-13T14:19:24.863Z,1.67
2023-02-13T14:21:52.231Z,1.73
2023-02-13T14:24:19.746Z,1.60
2023-02-13T14:26:57.899Z,1.73
2023-02-13T14:29:34.981Z,1.83
2023-02-13T14:32:08.239Z,1.50
2023-02-13T14:34:36.981Z,1.73
2023-02-13T14:37:24.341Z,1.75
2023-02-13T14:40:47.508Z,1.67
2023-02-13T14:43:23.364Z,1.65
2023-02-13T14:45:53.711Z,2.08
2023-02-13T14:48:21.112Z,1.80
2023-02-13T14:50:50.116Z,1.70
2023-02-13T14:53:21.027Z,1.65
2023-02-13T14:55:49.230Z,1.80
2023-02-13T14:58:20.423Z,1.60
2023-02-13T15:00:53.680Z,1.80
2023-02-13T15:03:25.321Z,1.55
2023-02-13T15:05:54.062Z,2.05
2023-02-13T15:08:22.213Z,1.80
2023-02-13T15:10:50.768Z,1.38
2023-02-13T15:13:19.048Z,1.58
2023-02-13T15:15:46.539Z,1.80
2023-02-13T15:18:19.834Z,1.70
2023-02-13T15:20:47.244Z,1.73
2023-02-13T15:23:20.560Z,1.50
2023-02-13T15:25:50.011Z,1.60
2023-02-13T15:28:20.639Z,1.90
2023-02-13T15:30:54.516Z,1.60
2023-02-13T15:33:24.763Z,1.90
2023-02-13T15:38:25.794Z,1.63
2023-02-13T15:43:32.475Z,1.90
2023-02-13T15:46:01.367Z,1.50
2023-02-13T15:48:30.371Z,1.60
2023-02-13T15:50:58.161Z,1.67
2023-02-13T15:53:25.823Z,1.70
2023-02-13T15:55:57.708Z,1.75
2023-02-13T15:58:26.470Z,2.00
2023-02-13T16:00:53.868Z,1.70
2023-02-13T16:03:21.260Z,1.48
2023-02-13T16:05:49.993Z,1.85
2023-02-13T16:08:36.287Z,1.42
2023-02-13T16:11:24.762Z,1.80
2023-02-13T16:13:59.551Z,1.70
2023-02-13T16:16:27.078Z,1.80
2023-02-13T16:18:54.482Z,1.85
2023-02-13T16:21:24.249Z,2.13
2023-02-13T16:23:51.688Z,2.00
2023-02-13T16:26:19.398Z,1.80
2023-02-13T16:28:46.966Z,2.00
2023-02-13T16:31:15.536Z,1.77
2023-02-13T16:33:43.052Z,1.90
2023-02-13T16:36:27.162Z,1.92
2023-02-13T16:38:54.549Z,1.80
2023-02-13T16:41:32.187Z,1.90
2023-02-13T16:43:59.701Z,2.03
2023-02-13T16:46:34.101Z,1.80
2023-02-13T16:49:05.511Z,2.00
2023-02-13T16:51:36.764Z,1.85
2023-02-13T16:54:05.396Z,1.90
2023-02-13T16:56:38.345Z,1.88
2023-02-13T16:59:11.491Z,1.95
2023-02-13T17:01:38.893Z,1.80
2023-02-13T17:04:11.926Z,1.90
2023-02-13T17:06:40.758Z,1.77
2023-02-13T17:09:08.128Z,1.80
2023-02-13T17:11:35.555Z,1.88
2023-02-13T17:14:02.939Z,1.88
2023-02-13T17:16:30.327Z,2.10
2023-02-13T17:18:57.718Z,1.90
2023-02-13T17:21:25.294Z,2.17
2023-02-13T17:23:53.990Z,2.08
2023-02-13T17:26:21.386Z,2.10
2023-02-13T17:28:48.772Z,2.30
2023-02-13T17:31:16.292Z,2.10
2023-02-13T17:33:45.136Z,2.38
2023-02-13T17:36:12.776Z,2.10
2023-02-13T17:38:40.160Z,2.22
2023-02-13T17:41:12.401Z,2.22
2023-02-13T17:43:39.781Z,1.95
2023-02-13T17:46:07.206Z,2.22
2023-02-13T17:48:34.687Z,2.00
2023-02-13T17:51:02.079Z,2.10
2023-02-13T17:53:30.665Z,2.33
2023-02-13T17:55:58.185Z,2.00
2023-02-13T17:58:26.898Z,2.05
2023-02-13T18:00:54.363Z,2.00
2023-02-13T18:03:22.263Z,1.90
2023-02-13T18:05:50.039Z,2.13
2023-02-13T18:08:17.422Z,2.10
2023-02-13T18:10:44.823Z,2.08
2023-02-13T18:13:12.195Z,2.10
2023-02-13T18:15:42.011Z,2.42
2023-02-13T18:18:09.596Z,2.40
2023-02-13T18:20:37.401Z,2.88
2023-02-13T18:23:06.878Z,2.45
2023-02-13T18:25:34.325Z,2.85
2023-02-13T18:28:01.706Z,2.50
2023-02-13T18:30:29.194Z,3.00
2023-02-13T18:32:58.787Z,2.88
2023-02-13T18:35:26.233Z,3.13
2023-02-13T18:37:53.670Z,2.70
2023-02-13T18:40:21.353Z,2.60
2023-02-13T18:42:51.109Z,2.88
2023-02-13T18:45:18.632Z,2.50
2023-02-13T18:47:46.020Z,3.05
2023-02-13T18:50:14.822Z,2.70
2023-02-13T18:52:42.214Z,2.70
2023-02-13T18:55:09.901Z,2.90
2023-02-13T18:57:37.298Z,2.95
2023-02-13T19:00:05.388Z,2.83
2023-02-13T19:02:33.288Z,2.88
2023-02-13T19:05:00.937Z,3.15
2023-02-13T19:07:29.649Z,2.72
2023-02-13T19:09:57.034Z,2.45
2023-02-13T19:12:24.532Z,3.08
2023-02-13T19:14:51.940Z,2.97
2023-02-13T19:17:19.335Z,2.97
2023-02-13T19:19:48.600Z,2.78
2023-02-13T19:22:16.004Z,2.70
2023-02-13T19:24:44.746Z,2.78
2023-02-13T19:27:12.180Z,2.83
2023-02-13T19:29:39.541Z,2.90
2023-02-13T19:32:06.969Z,2.75
2023-02-13T19:34:34.578Z,3.10
2023-02-13T19:37:01.981Z,2.85
2023-02-13T19:39:29.395Z,3.17
2023-02-13T19:41:58.381Z,2.75
2023-02-13T19:44:25.957Z,3.28
2023-02-13T19:46:53.399Z,2.97
2023-02-13T19:49:22.281Z,3.20
2023-02-13T19:51:49.702Z,2.70
2023-02-13T19:54:17.095Z,2.92
2023-02-13T19:56:44.561Z,3.38
2023-02-13T19:59:13.645Z,3.20
2023-02-13T20:01:42.619Z,2.90
2023-02-13T20:04:10.372Z,3.20
2023-02-13T20:06:37.831Z,3.15
2023-02-13T20:09:06.458Z,3.13
2023-02-13T20:11:33.874Z,2.90
2023-02-13T20:14:01.673Z,3.35
2023-02-13T20:16:32.945Z,3.28
2023-02-13T20:19:03.477Z,2.88
2023-02-13T20:21:30.879Z,3.67
2023-02-13T20:23:58.288Z,3.33
2023-02-13T20:26:25.689Z,3.65
2023-02-13T20:28:53.060Z,3.50
2023-02-13T20:31:21.496Z,3.72
2023-02-13T20:33:51.164Z,3.45
2023-02-13T20:36:19.262Z,3.08
2023-02-13T20:38:46.768Z,3.05
2023-02-13T20:41:14.860Z,3.78
2023-02-13T20:43:42.385Z,4.28
2023-02-13T20:46:09.887Z,3.90
2023-02-13T20:48:37.374Z,4.00
2023-02-13T20:51:07.607Z,4.05
2023-02-13T20:53:35.577Z,4.20
2023-02-13T20:56:04.475Z,3.70
2023-02-13T20:58:32.091Z,3.95
2023-02-13T21:00:59.748Z,4.07
2023-02-13T21:03:27.534Z,4.13
2023-02-13T21:05:54.971Z,4.00
2023-02-13T21:08:23.669Z,4.20
2023-02-13T21:10:51.048Z,4.07
2023-02-13T21:13:18.431Z,3.83
2023-02-13T21:15:48.909Z,3.45
2023-02-13T21:18:16.296Z,3.85
2023-02-13T21:20:43.662Z,3.83
2023-02-13T21:23:11.034Z,3.88
2023-02-13T21:25:39.723Z,4.03
2023-02-13T21:28:07.305Z,3.53
2023-02-13T21:30:34.745Z,3.90
2023-02-13T21:33:02.128Z,4.28
2023-02-13T21:35:29.594Z,4.43
2023-02-13T21:37:56.983Z,4.38
2023-02-13T21:40:24.460Z,4.32
2023-02-13T21:42:54.034Z,4.00
2023-02-13T21:45:21.455Z,4.45
2023-02-13T21:47:48.899Z,4.30
2023-02-13T21:50:16.431Z,4.20
2023-02-13T21:52:43.844Z,4.00
2023-02-13T21:55:11.224Z,4.35
2023-02-13T21:57:39.707Z,4.22
2023-02-13T22:00:10.406Z,4.28
2023-02-13T22:02:38.795Z,4.38
2023-02-13T22:05:06.663Z,3.92
2023-02-13T22:07:54.740Z,4.10
2023-02-13T22:10:22.123Z,4.35
2023-02-13T22:12:52.288Z,4.45
2023-02-13T22:17:48.323Z,4.15
2023-02-13T22:20:15.926Z,4.30
2023-02-13T22:22:43.383Z,4.38
2023-02-13T22:25:11.379Z,4.68
2023-02-13T22:27:38.885Z,4.85
2023-02-13T22:30:07.583Z,4.32
2023-02-13T22:32:36.367Z,5.07
2023-02-13T22:35:03.787Z,5.43
2023-02-13T22:37:31.180Z,5.05
2023-02-13T22:39:58.602Z,5.40
2023-02-13T22:42:26.049Z,5.20
2023-02-13T22:44:53.431Z,5.53
2023-02-13T22:47:20.826Z,5.45
2023-02-13T22:49:49.532Z,5.50
2023-02-13T22:52:16.931Z,5.40
2023-02-13T22:54:44.307Z,6.10
2023-02-13T22:57:11.749Z,6.13
2023-02-13T22:59:40.241Z,6.07
2023-02-13T23:02:07.833Z,6.55
2023-02-13T23:04:35.265Z,6.88
2023-02-13T23:07:04.005Z,7.53
2023-02-13T23:09:31.405Z,6.93
2023-02-13T23:12:16.501Z,7.07
2023-02-13T23:14:43.881Z,7.28
2023-02-13T23:17:28.779Z,6.50
2023-02-13T23:19:56.183Z,7.60
2023-02-13T23:22:24.889Z,7.72
2023-02-13T23:24:52.315Z,7.72
2023-02-13T23:27:19.737Z,7.47
2023-02-13T23:29:47.155Z,7.03
2023-02-13T23:32:14.781Z,7.35
2023-02-13T23:34:42.273Z,7.07
2023-02-13T23:37:09.685Z,7.90
2023-02-13T23:39:38.396Z,6.97
2023-02-13T23:42:05.809Z,7.47
2023-02-13T23:44:33.241Z,7.70
2023-02-13T23:47:00.662Z,7.45
2023-02-13T23:49:28.072Z,7.93
2023-02-13T23:51:55.512Z,7.47
2023-02-13T23:54:23.774Z,7.72
2023-02-13T23:56:53.080Z,7.10
2023-02-13T23:59:20.999Z,7.47
